createdAt,value
2018-07-30T00:00:48.786Z,53.36
2018-07-30T00:01:48.765Z,53.55
2018-07-30T00:02:48.737Z,54.03
2018-07-30T00:03:48.715Z,54.52
2018-07-30T00:04:48.730Z,55.00
2018-07-30T00:05:48.675Z,55.00
2018-07-30T00:06:48.655Z,55.00
2018-07-30T00:07:48.623Z,54.62
2018-07-30T00:08:48.605Z,54.62
2018-07-30T00:09:48.577Z,53.75
2018-07-30T00:10:48.553Z,53.85
2018-07-30T00:11:48.539Z,54.81
2018-07-30T00:12:48.514Z,54.79
2018-07-30T00:13:48.491Z,55.00
2018-07-30T00:14:48.471Z,55.36
2018-07-30T00:15:48.441Z,55.36
2018-07-30T00:16:48.420Z,55.56
2018-07-30T00:17:48.399Z,55.49
2018-07-30T00:18:48.379Z,56.16
2018-07-30T00:19:48.356Z,55.98
2018-07-30T00:20:48.333Z,55.88
2018-07-30T00:21:48.304Z,55.94
2018-07-30T00:22:48.279Z,55.85
2018-07-30T00:23:48.267Z,57.53
2018-07-30T00:24:48.236Z,58.59
2018-07-30T00:25:48.214Z,58.01
2018-07-30T00:26:48.194Z,56.94
2018-07-30T00:27:48.171Z,56.04
2018-07-30T00:28:48.152Z,56.85
2018-07-30T00:29:48.119Z,56.36
2018-07-30T00:30:48.105Z,56.62
2018-07-30T00:31:48.078Z,57.11
2018-07-30T00:32:48.050Z,57.40
2018-07-30T00:33:48.037Z,56.65
2018-07-30T00:34:48.010Z,57.62
2018-07-30T00:35:47.993Z,57.59
2018-07-30T00:36:47.966Z,57.14
2018-07-30T00:37:47.948Z,56.24
2018-07-30T00:38:47.923Z,56.62
2018-07-30T00:39:47.898Z,56.65
2018-07-30T00:40:47.876Z,56.62
2018-07-30T00:41:47.846Z,56.72
2018-07-30T00:42:47.832Z,57.11
2018-07-30T00:43:47.803Z,57.40
2018-07-30T00:44:47.779Z,56.34
2018-07-30T00:45:47.763Z,57.50
2018-07-30T00:46:47.734Z,57.59
2018-07-30T00:47:47.714Z,57.79
2018-07-30T00:48:47.695Z,57.79
2018-07-30T00:49:47.662Z,58.47
2018-07-30T00:50:47.645Z,57.50
2018-07-30T00:51:47.626Z,58.37
2018-07-30T00:52:47.598Z,58.47
2018-07-30T00:53:47.577Z,57.98
2018-07-30T00:54:47.551Z,57.69
2018-07-30T00:55:47.532Z,57.59
2018-07-30T00:56:47.512Z,58.27
2018-07-30T00:57:47.487Z,58.17
2018-07-30T00:58:47.461Z,58.75
2018-07-30T00:59:47.441Z,58.27
2018-07-30T01:00:47.419Z,58.75
2018-07-30T01:01:47.387Z,58.27
2018-07-30T01:02:47.371Z,58.56
2018-07-30T01:03:47.344Z,59.05
2018-07-30T01:04:47.318Z,58.95
2018-07-30T01:05:47.304Z,59.23
2018-07-30T01:06:47.271Z,58.85
2018-07-30T01:07:47.255Z,59.40
2018-07-30T01:08:47.234Z,58.47
2018-07-30T01:09:47.206Z,58.47
2018-07-30T01:10:47.189Z,58.85
2018-07-30T01:11:47.158Z,58.95
2018-07-30T01:12:47.140Z,58.07
2018-07-30T01:13:47.114Z,58.17
2018-07-30T01:14:47.097Z,58.47
2018-07-30T01:15:47.072Z,57.88
2018-07-30T01:16:47.049Z,57.88
2018-07-30T01:17:47.024Z,56.62
2018-07-30T01:18:47.001Z,57.11
2018-07-30T01:19:46.984Z,58.07
2018-07-30T01:20:46.954Z,57.50
2018-07-30T01:21:46.935Z,57.69
2018-07-30T01:22:46.914Z,56.43
2018-07-30T01:23:46.891Z,57.11
2018-07-30T01:24:46.867Z,56.82
2018-07-30T01:25:46.836Z,56.82
2018-07-30T01:26:46.815Z,56.62
2018-07-30T01:27:46.799Z,56.82
2018-07-30T01:28:46.781Z,57.18
2018-07-30T01:29:46.746Z,56.40
2018-07-30T01:30:46.729Z,56.88
2018-07-30T01:31:46.698Z,56.50
2018-07-30T01:32:46.678Z,56.98
2018-07-30T01:33:46.662Z,57.46
2018-07-30T01:34:46.630Z,57.18
2018-07-30T01:35:46.617Z,57.66
2018-07-30T01:36:46.590Z,57.66
2018-07-30T01:37:46.564Z,57.76
2018-07-30T01:38:46.541Z,58.24
2018-07-30T01:39:46.523Z,58.53
2018-07-30T01:40:46.497Z,57.37
2018-07-30T01:41:46.472Z,57.37
2018-07-30T01:42:46.458Z,57.76
2018-07-30T01:43:46.426Z,57.18
2018-07-30T01:44:46.403Z,57.76
2018-07-30T01:45:46.382Z,58.34
2018-07-30T01:46:46.357Z,58.24
2018-07-30T01:47:46.343Z,57.54
2018-07-30T01:48:46.309Z,57.56
2018-07-30T01:49:46.294Z,57.44
2018-07-30T01:50:46.271Z,58.31
2018-07-30T01:51:46.242Z,58.40
2018-07-30T01:52:46.227Z,59.69
2018-07-30T01:53:46.193Z,59.86
2018-07-30T01:54:46.181Z,59.86
2018-07-30T01:55:46.146Z,59.38
2018-07-30T01:56:46.127Z,59.95
2018-07-30T01:57:46.106Z,61.30
2018-07-30T01:58:46.084Z,60.05
2018-07-30T01:59:46.064Z,59.56
2018-07-30T02:00:46.036Z,59.66
2018-07-30T02:01:46.011Z,59.66
2018-07-30T02:02:45.999Z,60.31
2018-07-30T02:03:45.963Z,60.21
2018-07-30T02:04:45.948Z,59.92
2018-07-30T02:05:45.916Z,60.60
2018-07-30T02:06:45.893Z,60.60
2018-07-30T02:07:45.923Z,61.18
2018-07-30T02:08:45.847Z,62.24
2018-07-30T02:09:45.839Z,63.21
2018-07-30T02:10:45.800Z,63.40
2018-07-30T02:11:45.781Z,62.63
2018-07-30T02:12:45.754Z,62.82
2018-07-30T02:13:45.739Z,62.63
2018-07-30T02:14:45.711Z,62.24
2018-07-30T02:15:45.690Z,63.02
2018-07-30T02:16:45.668Z,62.79
2018-07-30T02:17:45.644Z,62.98
2018-07-30T02:18:45.620Z,63.76
2018-07-30T02:19:45.595Z,63.66
2018-07-30T02:20:45.569Z,64.92
2018-07-30T02:21:45.553Z,65.40
2018-07-30T02:22:45.525Z,66.27
2018-07-30T02:23:45.508Z,65.78
2018-07-30T02:24:45.486Z,66.46
2018-07-30T02:25:45.452Z,65.78
2018-07-30T02:26:45.437Z,66.17
2018-07-30T02:27:45.414Z,66.08
2018-07-30T02:28:45.394Z,66.56
2018-07-30T02:29:45.359Z,67.33
2018-07-30T02:30:45.347Z,67.14
2018-07-30T02:31:45.315Z,67.62
2018-07-30T02:32:45.290Z,68.40
2018-07-30T02:33:45.271Z,68.20
2018-07-30T02:34:45.246Z,68.30
2018-07-30T02:35:45.227Z,68.78
2018-07-30T02:36:45.209Z,68.88
2018-07-30T02:37:45.174Z,68.20
2018-07-30T02:38:45.155Z,67.91
2018-07-30T02:39:45.130Z,68.78
2018-07-30T02:40:45.103Z,70.04
2018-07-30T02:41:45.091Z,68.88
2018-07-30T02:42:45.058Z,69.65
2018-07-30T02:43:45.045Z,69.36
2018-07-30T02:44:45.016Z,69.90
2018-07-30T02:45:45.008Z,70.04
2018-07-30T02:46:44.974Z,69.90
2018-07-30T02:47:44.942Z,70.48
2018-07-30T02:48:44.921Z,69.94
2018-07-30T02:49:44.902Z,71.45
2018-07-30T02:50:44.877Z,71.45
2018-07-30T02:51:44.852Z,71.64
2018-07-30T02:52:44.826Z,72.22
2018-07-30T02:53:44.809Z,72.32
2018-07-30T02:54:44.780Z,72.71
2018-07-30T02:55:44.761Z,73.38
2018-07-30T02:56:44.738Z,73.00
2018-07-30T02:57:44.824Z,73.28
2018-07-30T02:58:44.693Z,73.09
2018-07-30T02:59:44.661Z,73.38
2018-07-30T03:00:44.641Z,73.77
2018-07-30T03:01:44.634Z,75.12
2018-07-30T03:02:44.594Z,74.73
2018-07-30T03:03:44.577Z,74.64
2018-07-30T03:04:44.548Z,74.54
2018-07-30T03:05:44.522Z,75.02
2018-07-30T03:06:44.499Z,75.60
2018-07-30T03:07:44.481Z,76.09
2018-07-30T03:08:44.456Z,75.99
2018-07-30T03:09:44.432Z,75.89
2018-07-30T03:10:44.409Z,75.70
2018-07-30T03:11:44.384Z,75.31
2018-07-30T03:12:44.362Z,74.83
2018-07-30T03:13:44.336Z,75.79
2018-07-30T03:14:44.310Z,77.05
2018-07-30T03:15:44.290Z,77.34
2018-07-30T03:16:44.264Z,76.57
2018-07-30T03:17:44.246Z,76.28
2018-07-30T03:18:44.233Z,75.79
2018-07-30T03:19:44.198Z,75.89
2018-07-30T03:20:44.179Z,76.86
2018-07-30T03:21:44.155Z,77.34
2018-07-30T03:22:44.130Z,77.53
2018-07-30T03:23:44.103Z,77.25
2018-07-30T03:24:44.082Z,77.73
2018-07-30T03:25:44.055Z,77.73
2018-07-30T03:26:44.033Z,77.53
2018-07-30T03:27:44.013Z,77.63
2018-07-30T03:28:44.024Z,76.67
2018-07-30T03:29:43.965Z,77.53
2018-07-30T03:30:43.945Z,77.15
2018-07-30T03:31:43.959Z,76.67
2018-07-30T03:32:43.896Z,75.85
2018-07-30T03:33:43.865Z,76.05
2018-07-30T03:34:43.843Z,76.72
2018-07-30T03:35:43.824Z,76.34
2018-07-30T03:36:43.796Z,77.01
2018-07-30T03:37:43.778Z,77.50
2018-07-30T03:38:43.752Z,77.01
2018-07-30T03:39:43.729Z,76.63
2018-07-30T03:40:43.703Z,76.63
2018-07-30T03:41:43.690Z,77.11
2018-07-30T03:42:43.660Z,78.36
2018-07-30T03:43:43.632Z,78.27
2018-07-30T03:44:43.611Z,78.27
2018-07-30T03:45:43.585Z,79.14
2018-07-30T03:46:43.561Z,79.24
2018-07-30T03:47:43.549Z,79.24
2018-07-30T03:48:43.519Z,79.24
2018-07-30T03:49:43.491Z,79.97
2018-07-30T03:50:43.474Z,80.10
2018-07-30T03:51:43.449Z,79.43
2018-07-30T03:52:43.426Z,79.19
2018-07-30T03:53:43.399Z,80.06
2018-07-30T03:54:43.381Z,80.16
2018-07-30T03:55:43.362Z,80.16
2018-07-30T03:56:43.326Z,80.26
2018-07-30T03:57:43.310Z,81.12
2018-07-30T03:58:43.287Z,80.93
2018-07-30T03:59:43.256Z,80.83
2018-07-30T04:00:43.237Z,81.80
2018-07-30T04:01:43.206Z,81.80
2018-07-30T04:02:43.188Z,81.70
2018-07-30T04:03:43.170Z,81.90
2018-07-30T04:04:43.138Z,81.90
2018-07-30T04:05:43.121Z,82.09
2018-07-30T04:06:43.093Z,81.70
2018-07-30T04:07:43.074Z,81.80
2018-07-30T04:08:43.043Z,82.09
2018-07-30T04:09:43.019Z,81.99
2018-07-30T04:10:42.996Z,82.48
2018-07-30T04:11:42.982Z,82.76
2018-07-30T04:12:42.958Z,82.86
2018-07-30T04:13:42.928Z,83.15
2018-07-30T04:14:42.904Z,82.57
2018-07-30T04:15:42.878Z,82.76
2018-07-30T04:16:42.856Z,82.76
2018-07-30T04:17:42.831Z,82.38
2018-07-30T04:18:42.809Z,82.57
2018-07-30T04:19:42.783Z,83.15
2018-07-30T04:20:42.764Z,83.25
2018-07-30T04:21:42.738Z,82.76
2018-07-30T04:22:42.722Z,83.25
2018-07-30T04:23:42.707Z,83.05
2018-07-30T04:24:42.714Z,83.25
2018-07-30T04:25:42.644Z,83.53
2018-07-30T04:26:42.616Z,83.05
2018-07-30T04:27:42.599Z,83.67
2018-07-30T04:28:42.575Z,83.39
2018-07-30T04:29:42.546Z,83.53
2018-07-30T04:30:42.565Z,83.39
2018-07-30T04:31:42.496Z,83.48
2018-07-30T04:32:42.474Z,83.09
2018-07-30T04:33:42.454Z,83.00
2018-07-30T04:34:42.429Z,83.00
2018-07-30T04:35:42.407Z,83.09
2018-07-30T04:36:42.379Z,82.61
2018-07-30T04:37:42.357Z,83.19
2018-07-30T04:38:42.337Z,82.23
2018-07-30T04:39:42.311Z,82.32
2018-07-30T04:40:42.288Z,82.03
2018-07-30T04:41:42.261Z,80.91
2018-07-30T04:42:42.240Z,81.88
2018-07-30T04:43:42.231Z,81.65
2018-07-30T04:44:42.191Z,81.01
2018-07-30T04:45:42.171Z,81.40
2018-07-30T04:46:42.145Z,81.16
2018-07-30T04:47:42.124Z,81.16
2018-07-30T04:48:42.101Z,81.26
2018-07-30T04:49:42.074Z,80.87
2018-07-30T04:50:42.053Z,81.16
2018-07-30T04:51:42.027Z,81.55
2018-07-30T04:52:41.999Z,81.45
2018-07-30T04:53:41.985Z,81.93
2018-07-30T04:54:41.954Z,82.32
2018-07-30T04:55:41.927Z,82.51
2018-07-30T04:56:41.910Z,82.13
2018-07-30T04:57:41.883Z,82.42
2018-07-30T04:58:41.864Z,82.32
2018-07-30T04:59:41.841Z,82.71
2018-07-30T05:00:41.809Z,82.90
2018-07-30T05:01:41.793Z,82.90
2018-07-30T05:02:41.773Z,82.71
2018-07-30T05:03:41.765Z,82.84
2018-07-30T05:04:41.724Z,83.23
2018-07-30T05:05:41.741Z,83.14
2018-07-30T05:06:41.678Z,83.23
2018-07-30T05:07:41.645Z,83.23
2018-07-30T05:08:41.628Z,82.84
2018-07-30T05:09:41.603Z,82.07
2018-07-30T05:10:41.575Z,82.36
2018-07-30T05:11:41.557Z,82.36
2018-07-30T05:12:41.531Z,82.56
2018-07-30T05:13:41.503Z,82.65
2018-07-30T05:14:41.489Z,82.75
2018-07-30T05:15:41.460Z,81.78
2018-07-30T05:16:41.433Z,82.26
2018-07-30T05:17:41.413Z,82.17
2018-07-30T05:18:41.390Z,82.36
2018-07-30T05:19:41.393Z,82.07
2018-07-30T05:20:41.347Z,82.69
2018-07-30T05:21:41.321Z,82.56
2018-07-30T05:22:41.291Z,82.17
2018-07-30T05:23:41.274Z,81.98
2018-07-30T05:24:41.243Z,82.21
2018-07-30T05:25:41.265Z,81.78
2018-07-30T05:26:41.202Z,82.07
2018-07-30T05:27:41.174Z,81.44
2018-07-30T05:28:41.160Z,82.50
2018-07-30T05:29:41.127Z,81.05
2018-07-30T05:30:41.104Z,80.95
2018-07-30T05:31:41.102Z,80.66
2018-07-30T05:32:41.062Z,81.34
2018-07-30T05:33:41.035Z,81.44
2018-07-30T05:34:41.017Z,81.92
2018-07-30T05:35:40.989Z,81.05
2018-07-30T05:36:40.963Z,80.86
2018-07-30T05:37:40.947Z,79.31
2018-07-30T05:38:40.921Z,80.80
2018-07-30T05:39:40.897Z,80.61
2018-07-30T05:40:40.879Z,79.54
2018-07-30T05:41:40.845Z,79.16
2018-07-30T05:42:40.835Z,79.45
2018-07-30T05:43:40.799Z,79.16
2018-07-30T05:44:40.775Z,80.07
2018-07-30T05:45:40.759Z,79.20
2018-07-30T05:46:40.735Z,79.39
2018-07-30T05:47:40.706Z,79.49
2018-07-30T05:48:40.688Z,79.29
2018-07-30T05:49:40.658Z,77.36
2018-07-30T05:50:40.637Z,77.07
2018-07-30T05:51:40.620Z,76.68
2018-07-30T05:52:40.587Z,75.95
2018-07-30T05:53:40.573Z,76.29
2018-07-30T05:54:40.544Z,75.81
2018-07-30T05:55:40.519Z,76.29
2018-07-30T05:56:40.493Z,72.95
2018-07-30T05:57:40.477Z,73.91
2018-07-30T05:58:40.449Z,75.17
2018-07-30T05:59:40.486Z,75.17
2018-07-30T06:00:40.403Z,73.04
2018-07-30T06:01:40.379Z,72.27
2018-07-30T06:02:40.356Z,72.36
2018-07-30T06:03:40.338Z,74.21
2018-07-30T06:04:40.307Z,75.37
2018-07-30T06:05:40.291Z,75.27
2018-07-30T06:06:40.272Z,74.15
2018-07-30T06:07:40.239Z,75.40
2018-07-30T06:08:40.221Z,74.63
2018-07-30T06:09:40.200Z,73.95
2018-07-30T06:10:40.175Z,73.75
2018-07-30T06:11:40.145Z,69.89
2018-07-30T06:12:40.132Z,67.37
2018-07-30T06:13:40.102Z,66.69
2018-07-30T06:14:40.088Z,68.08
2018-07-30T06:15:40.055Z,67.79
2018-07-30T06:16:40.036Z,68.47
2018-07-30T06:17:40.016Z,69.34
2018-07-30T06:18:39.984Z,66.82
2018-07-30T06:19:39.966Z,65.17
2018-07-30T06:20:39.953Z,64.30
2018-07-30T06:21:39.912Z,65.56
2018-07-30T06:22:39.903Z,66.53
2018-07-30T06:23:39.915Z,63.56
2018-07-30T06:24:39.842Z,64.72
2018-07-30T06:25:39.834Z,65.30
2018-07-30T06:26:39.804Z,64.04
2018-07-30T06:27:39.782Z,64.62
2018-07-30T06:28:39.761Z,64.34
2018-07-30T06:29:39.738Z,63.56
2018-07-30T06:30:39.732Z,61.14
2018-07-30T06:31:39.713Z,61.43
2018-07-30T06:32:39.662Z,63.95
2018-07-30T06:33:39.641Z,65.59
2018-07-30T06:34:39.614Z,64.53
2018-07-30T06:35:39.599Z,70.15
2018-07-30T06:36:39.574Z,73.15
2018-07-30T06:37:39.549Z,69.79
2018-07-30T06:38:39.531Z,65.14
2018-07-30T06:39:39.500Z,66.02
2018-07-30T06:40:39.484Z,64.37
2018-07-30T06:41:39.459Z,66.60
2018-07-30T06:42:39.432Z,63.40
2018-07-30T06:43:39.412Z,62.82
2018-07-30T06:44:39.388Z,62.43
2018-07-30T06:45:39.360Z,61.85
2018-07-30T06:46:39.347Z,58.65
2018-07-30T06:47:39.324Z,58.19
2018-07-30T06:48:39.304Z,60.03
2018-07-30T06:49:39.273Z,61.00
2018-07-30T06:50:39.259Z,57.80
2018-07-30T06:51:39.222Z,57.90
2018-07-30T06:52:39.210Z,58.48
2018-07-30T06:53:39.180Z,58.67
2018-07-30T06:54:39.160Z,58.51
2018-07-30T06:55:39.142Z,57.34
2018-07-30T06:56:39.109Z,59.09
2018-07-30T06:57:39.095Z,59.67
2018-07-30T06:58:39.065Z,61.52
2018-07-30T06:59:39.099Z,62.49
2018-07-30T07:00:39.027Z,58.64
2018-07-30T07:01:39.001Z,59.03
2018-07-30T07:02:38.983Z,57.86
2018-07-30T07:03:38.958Z,58.64
2018-07-30T07:04:38.933Z,56.40
2018-07-30T07:05:38.906Z,58.34
2018-07-30T07:06:38.884Z,57.47
2018-07-30T07:07:38.871Z,55.04
2018-07-30T07:08:38.840Z,54.94
2018-07-30T07:09:38.829Z,55.65
2018-07-30T07:10:38.803Z,55.07
2018-07-30T07:11:38.776Z,55.46
2018-07-30T07:12:38.757Z,56.24
2018-07-30T07:13:38.728Z,55.36
2018-07-30T07:14:38.722Z,56.62
2018-07-30T07:15:38.684Z,56.52
2018-07-30T07:16:38.749Z,55.65
2018-07-30T07:17:38.642Z,56.75
2018-07-30T07:18:38.617Z,56.34
2018-07-30T07:19:38.595Z,53.45
2018-07-30T07:20:38.591Z,54.13
2018-07-30T07:21:38.586Z,54.13
2018-07-30T07:22:38.528Z,54.03
2018-07-30T07:23:38.508Z,53.16
2018-07-30T07:24:38.486Z,53.16
2018-07-30T07:25:38.457Z,51.89
2018-07-30T07:26:38.441Z,54.22
2018-07-30T07:27:38.414Z,55.00
2018-07-30T07:28:38.391Z,55.68
2018-07-30T07:29:38.379Z,53.74
2018-07-30T07:30:38.356Z,52.19
2018-07-30T07:31:38.326Z,51.70
2018-07-30T07:32:38.302Z,50.26
2018-07-30T07:33:38.285Z,50.92
2018-07-30T07:34:38.262Z,51.21
2018-07-30T07:35:38.236Z,51.14
2018-07-30T07:36:38.218Z,51.62
2018-07-30T07:37:38.190Z,50.53
2018-07-30T07:38:38.168Z,52.31
2018-07-30T07:39:38.153Z,53.83
2018-07-30T07:40:38.130Z,54.71
2018-07-30T07:41:38.104Z,56.29
2018-07-30T07:42:38.087Z,58.43
2018-07-30T07:43:38.058Z,58.62
2018-07-30T07:44:38.036Z,58.43
2018-07-30T07:45:38.017Z,58.62
2018-07-30T07:46:37.999Z,58.23
2018-07-30T07:47:37.966Z,56.68
2018-07-30T07:48:37.975Z,56.59
2018-07-30T07:49:37.921Z,58.72
2018-07-30T07:50:37.940Z,57.07
2018-07-30T07:51:37.886Z,51.14
2018-07-30T07:52:37.869Z,54.35
2018-07-30T07:53:37.840Z,53.77
2018-07-30T07:54:37.811Z,54.57
2018-07-30T07:55:37.802Z,53.77
2018-07-30T07:56:37.770Z,53.18
2018-07-30T07:57:37.763Z,51.92
2018-07-30T07:58:37.767Z,51.43
2018-07-30T07:59:37.702Z,49.39
2018-07-30T08:00:37.686Z,49.97
2018-07-30T08:01:37.656Z,49.49
2018-07-30T08:02:37.639Z,49.10
2018-07-30T08:03:37.619Z,49.61
2018-07-30T08:04:37.597Z,50.95
2018-07-30T08:05:37.577Z,51.82
2018-07-30T08:06:37.573Z,53.20
2018-07-30T08:07:37.585Z,52.69
2018-07-30T08:08:37.507Z,53.38
2018-07-30T08:09:37.525Z,56.41
2018-07-30T08:10:37.459Z,55.83
2018-07-30T08:11:37.443Z,57.39
2018-07-30T08:12:37.421Z,55.05
2018-07-30T08:13:37.391Z,55.64
2018-07-30T08:14:37.374Z,57.29
2018-07-30T08:15:37.350Z,58.65
2018-07-30T08:16:37.325Z,54.28
2018-07-30T08:17:37.312Z,51.84
2018-07-30T08:18:37.281Z,51.94
2018-07-30T08:19:37.268Z,53.20
2018-07-30T08:20:37.243Z,52.82
2018-07-30T08:21:37.217Z,54.28
2018-07-30T08:22:37.202Z,53.20
2018-07-30T08:23:37.172Z,52.04
2018-07-30T08:24:37.152Z,51.75
2018-07-30T08:25:37.132Z,51.65
2018-07-30T08:26:37.104Z,48.34
2018-07-30T08:27:37.090Z,50.02
2018-07-30T08:28:37.059Z,50.48
2018-07-30T08:29:37.047Z,49.92
2018-07-30T08:30:37.026Z,51.19
2018-07-30T08:31:36.998Z,51.58
2018-07-30T08:32:37.005Z,49.24
2018-07-30T08:33:36.949Z,45.94
2018-07-30T08:34:36.938Z,47.69
2018-07-30T08:35:36.907Z,48.46
2018-07-30T08:36:36.894Z,46.13
2018-07-30T08:37:36.868Z,48.27
2018-07-30T08:38:36.842Z,48.36
2018-07-30T08:39:36.822Z,48.17
2018-07-30T08:40:36.804Z,48.07
2018-07-30T08:41:36.780Z,48.75
2018-07-30T08:42:36.756Z,50.12
2018-07-30T08:43:36.747Z,49.44
2018-07-30T08:44:36.711Z,48.36
2018-07-30T08:45:36.733Z,47.69
2018-07-30T08:46:36.671Z,46.71
2018-07-30T08:47:36.651Z,46.91
2018-07-30T08:48:36.628Z,47.20
2018-07-30T08:49:36.607Z,46.23
2018-07-30T08:50:36.585Z,44.96
2018-07-30T08:51:36.563Z,45.25
2018-07-30T08:52:36.543Z,44.86
2018-07-30T08:53:36.521Z,45.74
2018-07-30T08:54:36.493Z,45.06
2018-07-30T08:55:36.471Z,45.64
2018-07-30T08:56:36.458Z,46.13
2018-07-30T08:57:36.436Z,45.76
2018-07-30T08:58:36.405Z,45.86
2018-07-30T08:59:36.391Z,44.89
2018-07-30T09:00:36.360Z,44.59
2018-07-30T09:01:36.346Z,44.98
2018-07-30T09:02:36.333Z,45.15
2018-07-30T09:03:36.293Z,44.57
2018-07-30T09:04:36.283Z,45.06
2018-07-30T09:05:36.254Z,45.64
2018-07-30T09:06:36.240Z,45.67
2018-07-30T09:07:36.207Z,45.37
2018-07-30T09:08:36.192Z,46.05
2018-07-30T09:09:36.164Z,46.44
2018-07-30T09:10:36.139Z,46.34
2018-07-30T09:11:36.129Z,46.73
2018-07-30T09:12:36.163Z,47.61
2018-07-30T09:13:36.083Z,47.42
2018-07-30T09:14:36.056Z,46.32
2018-07-30T09:15:36.037Z,46.32
2018-07-30T09:16:36.017Z,46.42
2018-07-30T09:17:35.987Z,45.94
2018-07-30T09:18:35.978Z,45.54
2018-07-30T09:19:35.948Z,44.86
2018-07-30T09:20:35.922Z,45.35
2018-07-30T09:21:35.911Z,44.76
2018-07-30T09:22:35.879Z,44.86
2018-07-30T09:23:35.866Z,45.54
2018-07-30T09:24:35.833Z,46.13
2018-07-30T09:25:35.824Z,46.13
2018-07-30T09:26:35.799Z,46.61
2018-07-30T09:27:35.771Z,45.74
2018-07-30T09:28:35.757Z,46.13
2018-07-30T09:29:35.729Z,46.03
2018-07-30T09:30:35.709Z,46.71
2018-07-30T09:31:35.691Z,47.20
2018-07-30T09:32:35.682Z,47.98
2018-07-30T09:33:35.647Z,47.88
2018-07-30T09:34:35.626Z,46.81
2018-07-30T09:35:35.594Z,46.61
2018-07-30T09:36:35.599Z,46.03
2018-07-30T09:37:35.549Z,47.10
2018-07-30T09:38:35.620Z,46.71
2018-07-30T09:39:35.536Z,47.49
2018-07-30T09:40:35.488Z,47.78
2018-07-30T09:41:35.465Z,47.20
2018-07-30T09:42:35.447Z,47.49
2018-07-30T09:43:35.429Z,48.46
2018-07-30T09:44:35.415Z,47.69
2018-07-30T09:45:35.378Z,45.84
2018-07-30T09:46:35.371Z,47.00
2018-07-30T09:47:35.339Z,47.30
2018-07-30T09:48:35.357Z,47.39
2018-07-30T09:49:35.300Z,46.91
2018-07-30T09:50:35.337Z,46.61
2018-07-30T09:51:35.250Z,45.64
2018-07-30T09:52:35.230Z,45.35
2018-07-30T09:53:35.204Z,46.13
2018-07-30T09:54:35.180Z,45.84
2018-07-30T09:55:35.166Z,45.25
2018-07-30T09:56:35.147Z,45.28
2018-07-30T09:57:35.122Z,44.89
2018-07-30T09:58:35.102Z,44.40
2018-07-30T09:59:35.078Z,43.91
2018-07-30T10:00:35.052Z,44.20
2018-07-30T10:01:35.033Z,44.40
2018-07-30T10:02:35.006Z,44.40
2018-07-30T10:03:35.031Z,44.49
2018-07-30T10:04:34.967Z,44.98
2018-07-30T10:05:34.943Z,44.86
2018-07-30T10:06:34.997Z,45.06
2018-07-30T10:07:34.972Z,45.94
2018-07-30T10:08:34.876Z,46.32
2018-07-30T10:09:34.859Z,46.23
2018-07-30T10:10:34.842Z,46.91
2018-07-30T10:11:34.822Z,46.91
2018-07-30T10:12:34.795Z,46.61
2018-07-30T10:13:34.766Z,46.42
2018-07-30T10:14:34.744Z,46.51
2018-07-30T10:15:34.722Z,47.00
2018-07-30T10:16:34.702Z,46.81
2018-07-30T10:17:34.693Z,46.61
2018-07-30T10:18:34.666Z,46.32
2018-07-30T10:19:34.641Z,47.30
2018-07-30T10:20:34.623Z,45.94
2018-07-30T10:21:34.592Z,45.15
2018-07-30T10:22:34.575Z,44.18
2018-07-30T10:23:34.558Z,44.38
2018-07-30T10:24:34.579Z,43.71
2018-07-30T10:25:34.510Z,44.30
2018-07-30T10:26:34.489Z,44.79
2018-07-30T10:27:34.462Z,44.52
2018-07-30T10:28:34.439Z,43.81
2018-07-30T10:29:34.423Z,44.79
2018-07-30T10:30:34.438Z,44.40
2018-07-30T10:31:34.379Z,43.54
2018-07-30T10:32:34.380Z,43.81
2018-07-30T10:33:34.327Z,43.93
2018-07-30T10:34:34.350Z,44.30
2018-07-30T10:35:34.314Z,44.01
2018-07-30T10:36:34.268Z,44.69
2018-07-30T10:37:34.244Z,44.32
2018-07-30T10:38:34.223Z,43.84
2018-07-30T10:39:34.202Z,43.93
2018-07-30T10:40:34.178Z,43.25
2018-07-30T10:41:34.161Z,43.93
2018-07-30T10:42:34.134Z,43.93
2018-07-30T10:43:34.119Z,43.93
2018-07-30T10:44:34.092Z,44.32
2018-07-30T10:45:34.068Z,44.42
2018-07-30T10:46:34.051Z,43.25
2018-07-30T10:47:34.033Z,43.15
2018-07-30T10:48:34.000Z,43.93
2018-07-30T10:49:33.991Z,44.42
2018-07-30T10:50:33.984Z,45.00
2018-07-30T10:51:33.942Z,44.62
2018-07-30T10:52:33.917Z,44.62
2018-07-30T10:53:33.897Z,44.62
2018-07-30T10:54:33.879Z,43.84
2018-07-30T10:55:33.858Z,43.35
2018-07-30T10:56:33.835Z,43.44
2018-07-30T10:57:33.808Z,44.62
2018-07-30T10:58:33.792Z,44.52
2018-07-30T10:59:33.768Z,44.59
2018-07-30T11:00:33.748Z,44.71
2018-07-30T11:01:33.754Z,44.98
2018-07-30T11:02:33.702Z,44.23
2018-07-30T11:03:33.677Z,43.93
2018-07-30T11:04:33.687Z,44.32
2018-07-30T11:05:33.637Z,44.42
2018-07-30T11:06:33.636Z,44.32
2018-07-30T11:07:33.598Z,44.52
2018-07-30T11:08:33.572Z,42.86
2018-07-30T11:09:33.552Z,42.96
2018-07-30T11:10:33.534Z,43.25
2018-07-30T11:11:33.506Z,43.25
2018-07-30T11:12:33.484Z,42.88
2018-07-30T11:13:33.469Z,43.18
2018-07-30T11:14:33.444Z,44.24
2018-07-30T11:15:33.423Z,44.34
2018-07-30T11:16:33.399Z,44.34
2018-07-30T11:17:33.392Z,43.95
2018-07-30T11:18:33.372Z,43.08
2018-07-30T11:19:33.344Z,42.10
2018-07-30T11:20:33.309Z,42.59
2018-07-30T11:21:33.303Z,42.49
2018-07-30T11:22:33.268Z,43.37
2018-07-30T11:23:33.252Z,43.10
2018-07-30T11:24:33.237Z,42.32
2018-07-30T11:25:33.206Z,42.32
2018-07-30T11:26:33.184Z,42.41
2018-07-30T11:27:33.165Z,42.22
2018-07-30T11:28:33.140Z,42.12
2018-07-30T11:29:33.124Z,43.29
2018-07-30T11:30:33.098Z,43.59
2018-07-30T11:31:33.081Z,43.88
2018-07-30T11:32:33.058Z,43.00
2018-07-30T11:33:33.049Z,42.22
2018-07-30T11:34:33.045Z,42.22
2018-07-30T11:35:32.992Z,41.85
2018-07-30T11:36:32.972Z,42.24
2018-07-30T11:37:32.950Z,42.34
2018-07-30T11:38:32.929Z,43.02
2018-07-30T11:39:32.905Z,43.12
2018-07-30T11:40:32.889Z,43.04
2018-07-30T11:41:32.862Z,42.94
2018-07-30T11:42:32.844Z,43.53
2018-07-30T11:43:32.862Z,43.33
2018-07-30T11:44:32.798Z,43.16
2018-07-30T11:45:32.782Z,42.97
2018-07-30T11:46:32.762Z,41.99
2018-07-30T11:47:32.753Z,41.50
2018-07-30T11:48:32.838Z,41.23
2018-07-30T11:49:32.733Z,41.42
2018-07-30T11:50:32.672Z,40.35
2018-07-30T11:51:32.653Z,40.76
2018-07-30T11:52:32.629Z,39.39
2018-07-30T11:53:32.616Z,39.10
2018-07-30T11:54:32.660Z,39.49
2018-07-30T11:55:32.570Z,40.76
2018-07-30T11:56:32.545Z,40.48
2018-07-30T11:57:32.531Z,38.43
2018-07-30T11:58:32.509Z,38.92
2018-07-30T11:59:32.484Z,38.63
2018-07-30T12:00:32.467Z,37.57
2018-07-30T12:01:32.441Z,38.24
2018-07-30T12:02:32.425Z,37.06
2018-07-30T12:03:32.402Z,37.55
2018-07-30T12:04:32.386Z,37.85
2018-07-30T12:05:32.360Z,38.04
2018-07-30T12:06:32.341Z,38.26
2018-07-30T12:07:32.377Z,37.57
2018-07-30T12:08:32.305Z,37.47
2018-07-30T12:09:32.277Z,38.16
2018-07-30T12:10:32.259Z,38.76
2018-07-30T12:11:32.238Z,37.79
2018-07-30T12:12:32.235Z,37.98
2018-07-30T12:13:32.228Z,38.47
2018-07-30T12:14:32.179Z,38.47
2018-07-30T12:15:32.164Z,39.15
2018-07-30T12:16:32.140Z,37.49
2018-07-30T12:17:32.124Z,37.29
2018-07-30T12:18:32.095Z,37.39
2018-07-30T12:19:32.084Z,37.69
2018-07-30T12:20:32.052Z,37.29
2018-07-30T12:21:32.044Z,37.19
2018-07-30T12:22:32.024Z,36.90
2018-07-30T12:23:31.996Z,35.83
2018-07-30T12:24:31.981Z,35.93
2018-07-30T12:25:31.952Z,37.00
2018-07-30T12:26:31.932Z,37.69
2018-07-30T12:27:31.915Z,38.28
2018-07-30T12:28:31.893Z,37.59
2018-07-30T12:29:31.880Z,37.71
2018-07-30T12:30:31.857Z,36.43
2018-07-30T12:31:31.894Z,38.29
2018-07-30T12:32:31.815Z,37.41
2018-07-30T12:33:31.795Z,35.65
2018-07-30T12:34:31.781Z,37.02
2018-07-30T12:35:31.756Z,37.71
2018-07-30T12:36:31.775Z,37.51
2018-07-30T12:37:31.715Z,37.43
2018-07-30T12:38:31.709Z,36.06
2018-07-30T12:39:31.673Z,35.16
2018-07-30T12:40:31.656Z,34.78
2018-07-30T12:41:31.632Z,34.47
2018-07-30T12:42:31.618Z,35.06
2018-07-30T12:43:31.602Z,35.25
2018-07-30T12:44:31.587Z,35.06
2018-07-30T12:45:31.552Z,35.16
2018-07-30T12:46:31.531Z,35.94
2018-07-30T12:47:31.520Z,36.24
2018-07-30T12:48:31.532Z,37.02
2018-07-30T12:49:31.481Z,37.61
2018-07-30T12:50:31.487Z,35.65
2018-07-30T12:51:31.439Z,36.14
2018-07-30T12:52:31.414Z,35.06